sensor_id;sensor_type;location;lat;lon;timestamp;pressure;altitude;pressure_sealevel;temperature;humidity
7297;BME280;40758;54.038;11.684;2023-06-24T00:00:01;102011.88;;;14.44;80.22
7297;BME280;40758;54.038;11.684;2023-06-24T00:02:28;102008.97;;;14.32;80.42
7297;BME280;40758;54.038;11.684;2023-06-24T00:04:55;102012.78;;;14.31;80.60
7297;BME280;40758;54.038;11.684;2023-06-24T00:07:27;102010.88;;;14.31;80.62
7297;BME280;40758;54.038;11.684;2023-06-24T00:09:53;102018.63;;;14.41;80.82
7297;BME280;40758;54.038;11.684;2023-06-24T00:12:20;102022.66;;;14.38;80.62
7297;BME280;40758;54.038;11.684;2023-06-24T00:14:47;102027.47;;;14.36;80.65
7297;BME280;40758;54.038;11.684;2023-06-24T00:17:14;102025.19;;;14.33;80.65
7297;BME280;40758;54.038;11.684;2023-06-24T00:19:43;102032.09;;;14.36;80.50
7297;BME280;40758;54.038;11.684;2023-06-24T00:22:12;102035.69;;;14.30;80.45
7297;BME280;40758;54.038;11.684;2023-06-24T00:24:41;102030.25;;;14.23;80.75
7297;BME280;40758;54.038;11.684;2023-06-24T00:27:09;102027.31;;;14.18;81.07
7297;BME280;40758;54.038;11.684;2023-06-24T00:29:37;102034.44;;;14.26;81.08
7297;BME280;40758;54.038;11.684;2023-06-24T00:32:04;102044.75;;;14.24;80.80
7297;BME280;40758;54.038;11.684;2023-06-24T00:34:31;102041.59;;;14.20;80.82
7297;BME280;40758;54.038;11.684;2023-06-24T00:36:57;102043.72;;;14.18;80.79
7297;BME280;40758;54.038;11.684;2023-06-24T00:39:25;102044.13;;;14.08;80.68
7297;BME280;40758;54.038;11.684;2023-06-24T00:41:52;102055.94;;;14.09;80.66
7297;BME280;40758;54.038;11.684;2023-06-24T00:44:19;102051.31;;;13.96;80.74
7297;BME280;40758;54.038;11.684;2023-06-24T00:46:46;102055.31;;;13.87;80.75
7297;BME280;40758;54.038;11.684;2023-06-24T00:49:13;102050.72;;;13.81;81.16
7297;BME280;40758;54.038;11.684;2023-06-24T00:51:40;102039.56;;;13.76;81.32
7297;BME280;40758;54.038;11.684;2023-06-24T00:54:14;102043.13;;;13.76;81.61
7297;BME280;40758;54.038;11.684;2023-06-24T00:56:40;102049.22;;;13.78;81.93
7297;BME280;40758;54.038;11.684;2023-06-24T00:59:12;102048.78;;;13.68;82.01
7297;BME280;40758;54.038;11.684;2023-06-24T01:01:40;102041.44;;;13.62;82.33
7297;BME280;40758;54.038;11.684;2023-06-24T01:04:07;102061.00;;;13.66;82.48
7297;BME280;40758;54.038;11.684;2023-06-24T01:06:35;102053.03;;;13.57;82.66
7297;BME280;40758;54.038;11.684;2023-06-24T01:09:03;102059.09;;;13.46;82.93
7297;BME280;40758;54.038;11.684;2023-06-24T01:11:31;102058.03;;;13.47;83.30
7297;BME280;40758;54.038;11.684;2023-06-24T01:13:58;102061.38;;;13.49;83.17
7297;BME280;40758;54.038;11.684;2023-06-24T01:25:32;102047.53;;;13.44;83.84
7297;BME280;40758;54.038;11.684;2023-06-24T01:27:43;102055.09;;;13.49;84.27
7297;BME280;40758;54.038;11.684;2023-06-24T01:30:41;102063.94;;;13.57;84.32
7297;BME280;40758;54.038;11.684;2023-06-24T01:33:22;102063.09;;;13.57;84.27
7297;BME280;40758;54.038;11.684;2023-06-24T01:35:52;102077.16;;;13.67;84.40
7297;BME280;40758;54.038;11.684;2023-06-24T01:38:46;102079.03;;;13.67;84.33
7297;BME280;40758;54.038;11.684;2023-06-24T01:41:21;102077.59;;;13.64;84.19
7297;BME280;40758;54.038;11.684;2023-06-24T01:43:50;102086.81;;;13.76;84.08
7297;BME280;40758;54.038;11.684;2023-06-24T01:46:22;102081.34;;;13.83;84.46
7297;BME280;40758;54.038;11.684;2023-06-24T01:48:49;102078.41;;;13.91;84.52
7297;BME280;40758;54.038;11.684;2023-06-24T01:51:19;102086.63;;;13.98;84.40
7297;BME280;40758;54.038;11.684;2023-06-24T01:53:52;102077.56;;;14.04;84.39
7297;BME280;40758;54.038;11.684;2023-06-24T01:56:23;102076.09;;;14.01;84.39
7297;BME280;40758;54.038;11.684;2023-06-24T01:58:53;102071.88;;;14.05;84.24
7297;BME280;40758;54.038;11.684;2023-06-24T02:01:21;102080.06;;;14.19;83.99
7297;BME280;40758;54.038;11.684;2023-06-24T02:03:49;102079.66;;;14.15;84.02
7297;BME280;40758;54.038;11.684;2023-06-24T02:06:17;102081.97;;;14.11;83.74
7297;BME280;40758;54.038;11.684;2023-06-24T02:08:45;102084.09;;;14.09;83.75
7297;BME280;40758;54.038;11.684;2023-06-24T02:11:14;102080.28;;;14.10;83.64
7297;BME280;40758;54.038;11.684;2023-06-24T02:13:42;102077.34;;;14.05;83.47
7297;BME280;40758;54.038;11.684;2023-06-24T02:16:11;102081.75;;;14.06;83.59
7297;BME280;40758;54.038;11.684;2023-06-24T02:18:40;102071.25;;;14.17;83.67
7297;BME280;40758;54.038;11.684;2023-06-24T02:21:10;102076.47;;;14.25;83.54
7297;BME280;40758;54.038;11.684;2023-06-24T02:23:38;102081.28;;;14.36;83.52
7297;BME280;40758;54.038;11.684;2023-06-24T02:26:06;102072.25;;;14.35;83.46
7297;BME280;40758;54.038;11.684;2023-06-24T02:28:34;102076.06;;;14.28;83.11
7297;BME280;40758;54.038;11.684;2023-06-24T02:31:01;102075.66;;;14.18;83.19
7297;BME280;40758;54.038;11.684;2023-06-24T02:33:28;102078.81;;;14.21;83.09
7297;BME280;40758;54.038;11.684;2023-06-24T02:35:55;102079.00;;;14.13;82.98
7297;BME280;40758;54.038;11.684;2023-06-24T02:38:22;102079.03;;;14.06;82.90
7297;BME280;40758;54.038;11.684;2023-06-24T02:40:49;102073.97;;;13.97;82.69
7297;BME280;40758;54.038;11.684;2023-06-24T02:43:17;102081.34;;;13.90;82.80
7297;BME280;40758;54.038;11.684;2023-06-24T02:45:45;102088.28;;;13.92;82.90
7297;BME280;40758;54.038;11.684;2023-06-24T02:48:13;102087.03;;;13.88;82.74
7297;BME280;40758;54.038;11.684;2023-06-24T02:50:41;102092.50;;;13.88;82.70
7297;BME280;40758;54.038;11.684;2023-06-24T02:53:12;102089.78;;;13.75;82.50
7297;BME280;40758;54.038;11.684;2023-06-24T02:55:40;102097.53;;;13.65;82.53
7297;BME280;40758;54.038;11.684;2023-06-24T02:58:08;102099.19;;;13.52;82.68
7297;BME280;40758;54.038;11.684;2023-06-24T03:00:36;102100.84;;;13.40;82.79
7297;BME280;40758;54.038;11.684;2023-06-24T03:03:05;102103.13;;;13.30;82.89
7297;BME280;40758;54.038;11.684;2023-06-24T03:05:32;102104.19;;;13.22;83.05
7297;BME280;40758;54.038;11.684;2023-06-24T03:08:01;102110.84;;;13.20;83.25
7297;BME280;40758;54.038;11.684;2023-06-24T03:10:30;102110.81;;;13.13;83.49
7297;BME280;40758;54.038;11.684;2023-06-24T03:12:57;102109.53;;;13.09;83.61
7297;BME280;40758;54.038;11.684;2023-06-24T03:15:26;102108.91;;;13.00;83.23
7297;BME280;40758;54.038;11.684;2023-06-24T03:17:55;102116.59;;;12.90;83.25
7297;BME280;40758;54.038;11.684;2023-06-24T03:20:22;102114.91;;;12.83;83.28
7297;BME280;40758;54.038;11.684;2023-06-24T03:22:50;102111.50;;;12.74;83.51
7297;BME280;40758;54.038;11.684;2023-06-24T03:25:18;102109.38;;;12.69;83.70
7297;BME280;40758;54.038;11.684;2023-06-24T03:27:45;102106.03;;;12.74;83.80
7297;BME280;40758;54.038;11.684;2023-06-24T03:30:12;102111.50;;;12.74;84.24
7297;BME280;40758;54.038;11.684;2023-06-24T03:32:41;102101.66;;;12.73;84.13
7297;BME280;40758;54.038;11.684;2023-06-24T03:35:14;102113.38;;;12.73;84.46
7297;BME280;40758;54.038;11.684;2023-06-24T03:37:41;102112.34;;;12.74;84.32
7297;BME280;40758;54.038;11.684;2023-06-24T03:40:08;102108.56;;;12.75;84.33
7297;BME280;40758;54.038;11.684;2023-06-24T03:42:35;102121.16;;;12.76;84.57
7297;BME280;40758;54.038;11.684;2023-06-24T03:45:03;102122.81;;;12.71;84.41
7297;BME280;40758;54.038;11.684;2023-06-24T03:47:30;102116.91;;;12.67;84.39
7297;BME280;40758;54.038;11.684;2023-06-24T03:49:57;102127.47;;;12.77;84.73
7297;BME280;40758;54.038;11.684;2023-06-24T03:52:23;102130.41;;;12.82;84.66
7297;BME280;40758;54.038;11.684;2023-06-24T03:54:50;102137.56;;;12.90;84.73
7297;BME280;40758;54.038;11.684;2023-06-24T03:57:17;102127.75;;;12.95;84.93
7297;BME280;40758;54.038;11.684;2023-06-24T03:59:44;102121.72;;;13.07;84.75
7297;BME280;40758;54.038;11.684;2023-06-24T04:02:10;102131.88;;;13.26;84.58
7297;BME280;40758;54.038;11.684;2023-06-24T04:04:37;102125.22;;;13.48;84.59
7297;BME280;40758;54.038;11.684;2023-06-24T04:07:04;102112.00;;;13.65;84.48
7297;BME280;40758;54.038;11.684;2023-06-24T04:09:34;102112.66;;;13.87;84.04
7297;BME280;40758;54.038;11.684;2023-06-24T04:12:02;102115.59;;;13.92;83.83
7297;BME280;40758;54.038;11.684;2023-06-24T04:14:32;102118.94;;;13.94;83.38
7297;BME280;40758;54.038;11.684;2023-06-24T04:16:58;102121.06;;;13.99;83.57
7297;BME280;40758;54.038;11.684;2023-06-24T04:19:27;102120.44;;;14.03;83.37
7297;BME280;40758;54.038;11.684;2023-06-24T04:21:55;102118.94;;;14.14;83.46
7297;BME280;40758;54.038;11.684;2023-06-24T04:24:22;102121.03;;;14.25;83.25
7297;BME280;40758;54.038;11.684;2023-06-24T04:26:48;102118.91;;;14.47;83.11
7297;BME280;40758;54.038;11.684;2023-06-24T04:29:15;102125.16;;;14.74;82.92
7297;BME280;40758;54.038;11.684;2023-06-24T04:31:42;102120.16;;;15.09;82.78
7297;BME280;40758;54.038;11.684;2023-06-24T04:34:08;102121.03;;;15.41;82.22
7297;BME280;40758;54.038;11.684;2023-06-24T04:36:35;102118.72;;;15.77;81.31
7297;BME280;40758;54.038;11.684;2023-06-24T04:39:02;102120.09;;;16.11;80.37
7297;BME280;40758;54.038;11.684;2023-06-24T04:41:30;102125.19;;;16.32;79.49
7297;BME280;40758;54.038;11.684;2023-06-24T04:43:58;102119.81;;;16.81;79.08
7297;BME280;40758;54.038;11.684;2023-06-24T04:46:27;102124.16;;;17.37;77.98
7297;BME280;40758;54.038;11.684;2023-06-24T04:48:54;102131.75;;;18.18;76.57
7297;BME280;40758;54.038;11.684;2023-06-24T04:51:20;102121.59;;;18.19;74.37
7297;BME280;40758;54.038;11.684;2023-06-24T04:53:47;102131.63;;;18.48;73.49
7297;BME280;40758;54.038;11.684;2023-06-24T04:56:13;102131.88;;;18.47;72.68
7297;BME280;40758;54.038;11.684;2023-06-24T04:58:40;102132.34;;;18.20;72.20
7297;BME280;40758;54.038;11.684;2023-06-24T05:01:07;102138.78;;;17.49;72.43
7297;BME280;40758;54.038;11.684;2023-06-24T05:03:34;102142.19;;;17.14;73.13
7297;BME280;40758;54.038;11.684;2023-06-24T05:06:01;102133.75;;;16.61;73.74
7297;BME280;40758;54.038;11.684;2023-06-24T05:08:28;102141.03;;;16.30;74.69
7297;BME280;40758;54.038;11.684;2023-06-24T05:10:55;102136.94;;;16.14;75.45
7297;BME280;40758;54.038;11.684;2023-06-24T05:13:23;102142.56;;;16.01;76.23
7297;BME280;40758;54.038;11.684;2023-06-24T05:15:49;102143.28;;;15.90;76.48
7297;BME280;40758;54.038;11.684;2023-06-24T05:18:16;102149.47;;;15.79;77.00
7297;BME280;40758;54.038;11.684;2023-06-24T05:20:42;102151.84;;;15.68;77.47
7297;BME280;40758;54.038;11.684;2023-06-24T05:23:09;102153.78;;;15.61;77.79
7297;BME280;40758;54.038;11.684;2023-06-24T05:25:36;102153.28;;;15.78;78.22
7297;BME280;40758;54.038;11.684;2023-06-24T05:28:03;102159.66;;;16.21;78.41
7297;BME280;40758;54.038;11.684;2023-06-24T05:30:30;102152.63;;;16.50;77.95
7297;BME280;40758;54.038;11.684;2023-06-24T05:32:56;102149.06;;;16.68;77.91
7297;BME280;40758;54.038;11.684;2023-06-24T05:35:23;102153.81;;;16.98;77.44
7297;BME280;40758;54.038;11.684;2023-06-24T05:37:50;102158.09;;;16.94;76.87
7297;BME280;40758;54.038;11.684;2023-06-24T05:40:17;102157.47;;;16.92;76.71
7297;BME280;40758;54.038;11.684;2023-06-24T05:42:43;102160.59;;;16.95;76.68
7297;BME280;40758;54.038;11.684;2023-06-24T05:45:10;102163.59;;;16.94;76.08
7297;BME280;40758;54.038;11.684;2023-06-24T05:47:37;102169.31;;;16.67;76.00
7297;BME280;40758;54.038;11.684;2023-06-24T05:50:05;102170.66;;;16.40;76.25
7297;BME280;40758;54.038;11.684;2023-06-24T05:52:32;102165.13;;;16.21;76.53
7297;BME280;40758;54.038;11.684;2023-06-24T05:54:59;102173.47;;;16.33;76.69
7297;BME280;40758;54.038;11.684;2023-06-24T05:57:27;102169.00;;;17.00;76.72
7297;BME280;40758;54.038;11.684;2023-06-24T05:59:53;102174.41;;;17.67;75.63
7297;BME280;40758;54.038;11.684;2023-06-24T06:02:20;102165.34;;;18.08;73.88
7297;BME280;40758;54.038;11.684;2023-06-24T06:04:47;102175.06;;;18.46;73.17
7297;BME280;40758;54.038;11.684;2023-06-24T06:07:13;102174.81;;;19.23;71.28
7297;BME280;40758;54.038;11.684;2023-06-24T06:09:40;102179.63;;;20.02;69.47
7297;BME280;40758;54.038;11.684;2023-06-24T06:12:07;102172.38;;;20.46;67.57
7297;BME280;40758;54.038;11.684;2023-06-24T06:14:34;102178.03;;;20.06;65.58
7297;BME280;40758;54.038;11.684;2023-06-24T06:17:01;102176.53;;;20.15;65.75
7297;BME280;40758;54.038;11.684;2023-06-24T06:19:28;102181.84;;;19.43;65.76
7297;BME280;40758;54.038;11.684;2023-06-24T06:21:55;102167.41;;;19.52;65.68
7297;BME280;40758;54.038;11.684;2023-06-24T06:24:22;102182.09;;;19.70;66.06
7297;BME280;40758;54.038;11.684;2023-06-24T06:26:52;102176.88;;;19.16;65.48
7297;BME280;40758;54.038;11.684;2023-06-24T06:29:19;102166.81;;;18.46;65.87
7297;BME280;40758;54.038;11.684;2023-06-24T06:31:46;102173.13;;;18.58;66.86
7297;BME280;40758;54.038;11.684;2023-06-24T06:34:13;102166.91;;;18.86;67.17
7297;BME280;40758;54.038;11.684;2023-06-24T06:36:40;102160.78;;;19.08;66.52
7297;BME280;40758;54.038;11.684;2023-06-24T06:39:06;102167.16;;;18.85;66.12
7297;BME280;40758;54.038;11.684;2023-06-24T06:41:33;102167.75;;;18.40;66.20
7297;BME280;40758;54.038;11.684;2023-06-24T06:44:01;102173.13;;;18.12;67.08
7297;BME280;40758;54.038;11.684;2023-06-24T06:46:27;102170.25;;;18.18;67.38
7297;BME280;40758;54.038;11.684;2023-06-24T06:48:55;102162.22;;;18.99;67.17
7297;BME280;40758;54.038;11.684;2023-06-24T06:51:22;102176.72;;;18.82;66.65
7297;BME280;40758;54.038;11.684;2023-06-24T06:53:51;102176.59;;;18.66;66.85
7297;BME280;40758;54.038;11.684;2023-06-24T06:56:26;102182.00;;;18.72;66.88
7297;BME280;40758;54.038;11.684;2023-06-24T06:58:54;102180.56;;;19.62;66.90
7297;BME280;40758;54.038;11.684;2023-06-24T07:01:21;102187.84;;;20.30;65.46
7297;BME280;40758;54.038;11.684;2023-06-24T07:03:49;102188.44;;;21.10;64.31
7297;BME280;40758;54.038;11.684;2023-06-24T07:06:19;102199.16;;;21.28;62.78
7297;BME280;40758;54.038;11.684;2023-06-24T07:08:46;102193.13;;;20.87;62.28
7297;BME280;40758;54.038;11.684;2023-06-24T07:11:13;102198.50;;;20.43;61.92
7297;BME280;40758;54.038;11.684;2023-06-24T07:13:39;102195.59;;;20.50;62.67
7297;BME280;40758;54.038;11.684;2023-06-24T07:16:06;102203.16;;;21.37;61.81
7297;BME280;40758;54.038;11.684;2023-06-24T07:18:33;102200.44;;;21.20;60.73
7297;BME280;40758;54.038;11.684;2023-06-24T07:21:01;102190.00;;;22.30;60.09
7297;BME280;40758;54.038;11.684;2023-06-24T07:23:28;102189.63;;;22.96;58.16
7297;BME280;40758;54.038;11.684;2023-06-24T07:25:56;102188.66;;;22.33;57.53
7297;BME280;40758;54.038;11.684;2023-06-24T07:28:23;102176.44;;;22.29;57.13
7297;BME280;40758;54.038;11.684;2023-06-24T07:30:50;102188.25;;;21.38;56.61
7297;BME280;40758;54.038;11.684;2023-06-24T07:33:16;102187.66;;;21.58;57.78
7297;BME280;40758;54.038;11.684;2023-06-24T07:35:43;102184.22;;;22.37;57.12
7297;BME280;40758;54.038;11.684;2023-06-24T07:38:10;102187.06;;;21.56;56.38
7297;BME280;40758;54.038;11.684;2023-06-24T07:40:36;102192.44;;;20.80;56.60
7297;BME280;40758;54.038;11.684;2023-06-24T07:43:03;102187.13;;;20.23;58.30
7297;BME280;40758;54.038;11.684;2023-06-24T07:45:30;102193.63;;;19.66;59.70
7297;BME280;40758;54.038;11.684;2023-06-24T07:47:56;102193.16;;;19.86;61.00
7297;BME280;40758;54.038;11.684;2023-06-24T07:50:23;102203.34;;;20.03;61.16
7297;BME280;40758;54.038;11.684;2023-06-24T07:52:50;102192.75;;;20.62;61.01
7297;BME280;40758;54.038;11.684;2023-06-24T07:55:17;102192.84;;;20.33;59.88
7297;BME280;40758;54.038;11.684;2023-06-24T07:57:46;102194.84;;;21.15;60.84
7297;BME280;40758;54.038;11.684;2023-06-24T08:00:14;102184.75;;;21.26;58.32
7297;BME280;40758;54.038;11.684;2023-06-24T08:02:41;102196.59;;;20.99;58.71
7297;BME280;40758;54.038;11.684;2023-06-24T08:05:08;102190.72;;;21.62;58.06
7297;BME280;40758;54.038;11.684;2023-06-24T08:07:36;102200.41;;;21.37;56.89
7297;BME280;40758;54.038;11.684;2023-06-24T08:10:03;102204.06;;;21.97;56.73
7297;BME280;40758;54.038;11.684;2023-06-24T08:12:31;102209.75;;;22.49;56.18
7297;BME280;40758;54.038;11.684;2023-06-24T08:14:57;102195.84;;;22.07;55.07
7297;BME280;40758;54.038;11.684;2023-06-24T08:17:26;102205.38;;;22.96;55.41
7297;BME280;40758;54.038;11.684;2023-06-24T08:19:53;102216.75;;;22.99;54.86
7297;BME280;40758;54.038;11.684;2023-06-24T08:22:20;102205.84;;;23.40;53.61
7297;BME280;40758;54.038;11.684;2023-06-24T08:24:46;102216.44;;;23.48;52.72
7297;BME280;40758;54.038;11.684;2023-06-24T08:27:13;102210.66;;;23.70;52.14
7297;BME280;40758;54.038;11.684;2023-06-24T08:29:40;102212.97;;;23.16;50.51
7297;BME280;40758;54.038;11.684;2023-06-24T08:32:06;102219.72;;;23.40;51.47
7297;BME280;40758;54.038;11.684;2023-06-24T08:34:33;102207.38;;;23.94;51.72
7297;BME280;40758;54.038;11.684;2023-06-24T08:37:02;102222.44;;;22.40;51.01
7297;BME280;40758;54.038;11.684;2023-06-24T08:39:29;102227.44;;;22.38;53.62
7297;BME280;40758;54.038;11.684;2023-06-24T08:41:56;102228.22;;;22.07;52.89
7297;BME280;40758;54.038;11.684;2023-06-24T08:44:23;102230.91;;;21.47;53.62
7297;BME280;40758;54.038;11.684;2023-06-24T08:46:50;102229.34;;;21.13;54.66
7297;BME280;40758;54.038;11.684;2023-06-24T08:49:28;102225.63;;;21.24;56.22
7297;BME280;40758;54.038;11.684;2023-06-24T08:52:08;102222.78;;;22.49;56.56
7297;BME280;40758;54.038;11.684;2023-06-24T08:54:36;102219.53;;;22.99;53.38
7297;BME280;40758;54.038;11.684;2023-06-24T08:57:05;102227.31;;;23.07;53.41
7297;BME280;40758;54.038;11.684;2023-06-24T08:59:34;102217.81;;;23.56;53.20
7297;BME280;40758;54.038;11.684;2023-06-24T09:02:02;102213.78;;;22.69;50.25
7297;BME280;40758;54.038;11.684;2023-06-24T09:04:29;102218.19;;;22.00;52.85
7297;BME280;40758;54.038;11.684;2023-06-24T09:06:56;102215.81;;;21.82;53.77
7297;BME280;40758;54.038;11.684;2023-06-24T09:09:23;102206.88;;;22.71;53.51
7297;BME280;40758;54.038;11.684;2023-06-24T09:11:57;102210.75;;;23.18;52.42
7297;BME280;40758;54.038;11.684;2023-06-24T09:14:29;102215.19;;;23.19;52.61
7297;BME280;40758;54.038;11.684;2023-06-24T09:16:59;102211.91;;;22.37;51.45
7297;BME280;40758;54.038;11.684;2023-06-24T09:19:28;102215.94;;;21.92;52.71
7297;BME280;40758;54.038;11.684;2023-06-24T09:21:57;102216.38;;;22.43;53.81
7297;BME280;40758;54.038;11.684;2023-06-24T09:24:30;102223.84;;;22.80;53.58
7297;BME280;40758;54.038;11.684;2023-06-24T09:26:57;102217.94;;;23.08;52.83
7297;BME280;40758;54.038;11.684;2023-06-24T09:29:31;102217.72;;;22.78;51.55
7297;BME280;40758;54.038;11.684;2023-06-24T09:31:57;102227.19;;;22.45;52.62
7297;BME280;40758;54.038;11.684;2023-06-24T09:34:28;102223.28;;;22.83;53.26
7297;BME280;40758;54.038;11.684;2023-06-24T09:36:57;102226.75;;;23.05;52.54
7297;BME280;40758;54.038;11.684;2023-06-24T09:39:25;102229.53;;;23.05;51.93
7297;BME280;40758;54.038;11.684;2023-06-24T09:41:59;102226.03;;;23.20;51.65
7297;BME280;40758;54.038;11.684;2023-06-24T09:44:28;102218.94;;;22.92;51.63
7297;BME280;40758;54.038;11.684;2023-06-24T09:46:56;102225.50;;;22.81;51.08
7297;BME280;40758;54.038;11.684;2023-06-24T09:49:23;102220.41;;;23.10;52.04
7297;BME280;40758;54.038;11.684;2023-06-24T09:51:55;102221.06;;;23.27;51.46
7297;BME280;40758;54.038;11.684;2023-06-24T09:54:25;102229.34;;;23.22;51.51
7297;BME280;40758;54.038;11.684;2023-06-24T09:56:53;102225.84;;;23.52;51.16
7297;BME280;40758;54.038;11.684;2023-06-24T09:59:21;102232.53;;;23.61;50.19
7297;BME280;40758;54.038;11.684;2023-06-24T10:01:49;102211.19;;;22.94;49.24
7297;BME280;40758;54.038;11.684;2023-06-24T10:04:20;102217.31;;;22.96;49.76
7297;BME280;40758;54.038;11.684;2023-06-24T10:06:49;102224.13;;;23.41;50.98
7297;BME280;40758;54.038;11.684;2023-06-24T10:09:16;102218.16;;;23.70;50.19
7297;BME280;40758;54.038;11.684;2023-06-24T10:11:45;102209.75;;;23.44;48.60
7297;BME280;40758;54.038;11.684;2023-06-24T10:14:13;102222.13;;;23.21;47.53
7297;BME280;40758;54.038;11.684;2023-06-24T10:16:42;102210.03;;;22.85;48.17
7297;BME280;40758;54.038;11.684;2023-06-24T10:19:09;102222.84;;;22.59;48.35
7297;BME280;40758;54.038;11.684;2023-06-24T10:21:53;102212.97;;;22.31;48.34
7297;BME280;40758;54.038;11.684;2023-06-24T10:24:36;102219.66;;;22.08;49.74
7297;BME280;40758;54.038;11.684;2023-06-24T10:27:16;102215.84;;;22.46;49.76
7297;BME280;40758;54.038;11.684;2023-06-24T10:29:48;102212.41;;;23.14;50.59
7297;BME280;40758;54.038;11.684;2023-06-24T10:32:16;102216.72;;;22.94;47.83
7297;BME280;40758;54.038;11.684;2023-06-24T10:34:45;102197.13;;;22.58;48.58
7297;BME280;40758;54.038;11.684;2023-06-24T10:37:21;102216.88;;;22.77;48.37
7297;BME280;40758;54.038;11.684;2023-06-24T10:40:02;102219.09;;;22.75;49.34
7297;BME280;40758;54.038;11.684;2023-06-24T10:42:37;102215.78;;;22.78;49.29
7297;BME280;40758;54.038;11.684;2023-06-24T10:50:07;102201.72;;;22.85;49.56
7297;BME280;40758;54.038;11.684;2023-06-24T10:52:39;102198.22;;;23.05;49.70
7297;BME280;40758;54.038;11.684;2023-06-24T10:55:07;102197.78;;;23.33;49.73
7297;BME280;40758;54.038;11.684;2023-06-24T10:57:34;102188.88;;;23.21;47.54
7297;BME280;40758;54.038;11.684;2023-06-24T11:00:03;102184.22;;;23.42;48.72
7297;BME280;40758;54.038;11.684;2023-06-24T11:02:30;102183.75;;;23.60;47.70
7297;BME280;40758;54.038;11.684;2023-06-24T11:05:02;102180.75;;;24.03;47.28
7297;BME280;40758;54.038;11.684;2023-06-24T11:07:34;102176.88;;;23.78;45.02
7297;BME280;40758;54.038;11.684;2023-06-24T11:10:03;102174.28;;;23.56;45.35
7297;BME280;40758;54.038;11.684;2023-06-24T11:12:32;102176.31;;;23.97;46.62
7297;BME280;40758;54.038;11.684;2023-06-24T11:15:02;102182.69;;;24.02;44.61
7297;BME280;40758;54.038;11.684;2023-06-24T11:17:30;102176.03;;;24.19;45.02
7297;BME280;40758;54.038;11.684;2023-06-24T11:19:58;102185.47;;;24.33;44.97
7297;BME280;40758;54.038;11.684;2023-06-24T11:22:26;102167.72;;;24.03;43.87
7297;BME280;40758;54.038;11.684;2023-06-24T11:24:54;102169.94;;;24.16;44.93
7297;BME280;40758;54.038;11.684;2023-06-24T11:27:26;102168.25;;;24.21;44.62
7297;BME280;40758;54.038;11.684;2023-06-24T11:29:54;102182.16;;;24.36;44.29
7297;BME280;40758;54.038;11.684;2023-06-24T11:32:22;102172.69;;;24.22;43.91
7297;BME280;40758;54.038;11.684;2023-06-24T11:34:49;102183.81;;;23.91;42.69
7297;BME280;40758;54.038;11.684;2023-06-24T11:37:19;102177.06;;;23.51;42.83
7297;BME280;40758;54.038;11.684;2023-06-24T11:40:09;102170.97;;;23.59;44.39
7297;BME280;40758;54.038;11.684;2023-06-24T11:42:39;102171.06;;;23.95;44.47
7297;BME280;40758;54.038;11.684;2023-06-24T11:45:09;102165.19;;;24.12;43.17
7297;BME280;40758;54.038;11.684;2023-06-24T11:47:41;102175.19;;;24.54;43.65
7297;BME280;40758;54.038;11.684;2023-06-24T11:50:08;102178.22;;;24.67;42.85
7297;BME280;40758;54.038;11.684;2023-06-24T11:52:42;102168.53;;;24.45;40.62
7297;BME280;40758;54.038;11.684;2023-06-24T11:58:01;102166.59;;;24.30;42.47
7297;BME280;40758;54.038;11.684;2023-06-24T12:00:32;102166.56;;;24.65;41.80
7297;BME280;40758;54.038;11.684;2023-06-24T12:03:04;102171.81;;;24.67;40.53
7297;BME280;40758;54.038;11.684;2023-06-24T12:05:37;102163.97;;;24.94;40.77
7297;BME280;40758;54.038;11.684;2023-06-24T12:08:09;102169.56;;;24.79;39.54
7297;BME280;40758;54.038;11.684;2023-06-24T12:10:37;102173.66;;;25.12;40.48
7297;BME280;40758;54.038;11.684;2023-06-24T12:13:05;102164.19;;;25.03;38.94
7297;BME280;40758;54.038;11.684;2023-06-24T12:15:32;102167.13;;;25.32;39.64
7297;BME280;40758;54.038;11.684;2023-06-24T12:18:01;102168.59;;;25.19;39.21
7297;BME280;40758;54.038;11.684;2023-06-24T12:20:32;102172.53;;;25.08;38.43
7297;BME280;40758;54.038;11.684;2023-06-24T12:23:04;102172.69;;;24.52;38.62
7297;BME280;40758;54.038;11.684;2023-06-24T12:25:30;102182.66;;;24.68;39.98
7297;BME280;40758;54.038;11.684;2023-06-24T12:27:57;102170.28;;;25.15;39.69
7297;BME280;40758;54.038;11.684;2023-06-24T12:30:28;102170.53;;;25.24;38.83
7297;BME280;40758;54.038;11.684;2023-06-24T12:32:55;102170.13;;;25.46;38.68
7297;BME280;40758;54.038;11.684;2023-06-24T12:35:22;102165.56;;;25.60;39.06
7297;BME280;40758;54.038;11.684;2023-06-24T12:37:52;102172.47;;;25.68;37.98
7297;BME280;40758;54.038;11.684;2023-06-24T12:40:19;102154.28;;;25.86;37.86
7297;BME280;40758;54.038;11.684;2023-06-24T12:42:46;102158.19;;;25.85;37.71
7297;BME280;40758;54.038;11.684;2023-06-24T12:45:12;102161.00;;;25.80;36.45
7297;BME280;40758;54.038;11.684;2023-06-24T12:47:39;102154.81;;;25.93;37.68
7297;BME280;40758;54.038;11.684;2023-06-24T12:50:07;102150.63;;;26.24;37.42
7297;BME280;40758;54.038;11.684;2023-06-24T12:52:35;102146.75;;;26.49;36.67
7297;BME280;40758;54.038;11.684;2023-06-24T12:55:04;102140.56;;;26.29;35.18
7297;BME280;40758;54.038;11.684;2023-06-24T12:57:31;102157.72;;;26.41;35.78
7297;BME280;40758;54.038;11.684;2023-06-24T12:59:58;102141.81;;;26.70;36.02
7297;BME280;40758;54.038;11.684;2023-06-24T13:02:27;102142.16;;;26.64;34.76
7297;BME280;40758;54.038;11.684;2023-06-24T13:04:53;102145.78;;;26.64;35.14
7297;BME280;40758;54.038;11.684;2023-06-24T13:07:20;102135.09;;;26.71;35.08
7297;BME280;40758;54.038;11.684;2023-06-24T13:09:47;102136.13;;;26.81;35.04
7297;BME280;40758;54.038;11.684;2023-06-24T13:12:13;102131.44;;;26.76;34.33